• Join FlightAware (Why Join?)
  • Login
  • US Flag 
12:01PM EDT


 

Airport Tracker/Info


-or-


 

Live Flight TrackerFlight Track Log ✈ N561EJ ✈ 24-Apr-2013 ✈ KMOB - KJAN

Flight Track Log - Related Links

Times and Time Zones

All times are in EDT time to prevent confusion due to time zone crossing. See the N561EJ flight status page for this flight to view local times or setup timezone preferences in your user account.

Time Position Orientation Groundspeed Altitude Reporting Facility
EDT Latitude Longitude Course Direction KTS MPH feet Rate Location/Type
10:34AM 30.6222 -88.1919 232° Southwest 198 228 4,000  Level Houston Center
10:35AM 30.5558 -88.2233 202° Southwest 213 245 7,300 2,820 Climbing Houston Center
10:36AM 30.5028 -88.2544 207° Southwest 214 246 9,900 1,260 Climbing Houston Center
10:37AM 30.4744 -88.3314 247° West 246 283 10,000 540 Climbing Houston Center
10:38AM 30.4567 -88.4139 256° West 260 299 11,100 1,440 Climbing Houston Center
10:39AM 30.4238 -88.7810 232° Southwest  Level FlightAware Approximate
10:39AM 30.4481 -88.4958 263° West 258 297 13,000  Level Houston Center
10:40AM 30.4161 -88.5725 244° Southwest 267 307 14,900 2,100 Climbing Houston Center
10:41AM 30.3800 -88.6617 245° Southwest 258 297 17,400 1,980 Climbing Houston Center
10:42AM 30.3514 -88.7364 246° West 255 293 19,100 1,740 Climbing Houston Center
10:43AM 30.3225 -88.8081 245° Southwest 250 288 21,100 1,740 Climbing Houston Center
10:44AM 30.2947 -88.8786 246° West 244 281 22,800 1,620 Climbing Houston Center
10:45AM 30.2667 -88.9517 246° West 246 283 24,500 1,560 Climbing Houston Center
10:46AM 30.2403 -89.0261 248° West 249 287 26,000 1,560 Climbing Houston Center
10:47AM 30.2061 -89.1111 245° Southwest 244 281 27,800 1,440 Climbing Houston Center
10:48AM 30.1783 -89.1839 246° West 246 283 29,000 1,020 Climbing Houston Center
10:49AM 30.1489 -89.2569 245° Southwest 250 288 30,000 480 Climbing Houston Center
10:50AM 30.1167 -89.3400 246° West 272 313 30,000 300 Level Houston Center
10:51AM 30.0808 -89.4303 245° Southwest 298 343 30,700 960 Climbing Houston Center
10:52AM 30.0464 -89.5167 245° Southwest 296 341 32,100 1,200 Climbing Houston Center
10:54AM 30.0144 -89.6000 246° West 284 327 33,300 1,140 Climbing Houston Center
10:55AM 29.9722 -89.6953 243° Southwest 276 318 34,500 1,020 Climbing Houston Center
10:56AM 29.9333 -89.7711 239° Southwest 274 315 35,500 720 Climbing Houston Center
10:57AM 29.8967 -89.8447 240° Southwest 266 306 36,000 120 Climbing Houston Center
10:59AM 29.8144 -90.0078 240° Southwest 300 345 36,000  Level Houston Center
11:00AM 29.7692 -90.0956 239° Southwest 315 362 36,000  Level Houston Center
11:01AM 29.7153 -90.1814 234° Southwest 329 379 36,000  Level Houston Center
11:02AM 29.6397 -90.2836 230° Southwest 345 397 36,000  Level Houston Center
11:03AM 29.6028 -90.3814 247° West 334 384 36,000  Level Houston Center
11:04AM 29.5689 -90.4811 249° West 335 386 36,000  Level Houston Center
11:05AM 29.5344 -90.5806 248° West 336 387 36,000 -60 Level Houston Center
11:06AM 29.5006 -90.6797 249° West 334 384 35,900  Descending Houston Center
11:07AM 29.4661 -90.7783 248° West 334 384 36,000  Climbing Houston Center
11:08AM 29.4322 -90.8767 248° West 333 383 36,000  Level Houston Center
11:09AM 29.3894 -90.9950 247° West 334 384 36,000  Level Houston Center
11:10AM 29.3536 -91.0944 248° West 336 387 36,000  Level Houston Center
11:11AM 29.3294 -91.1978 255° West 339 390 36,000  Level Houston Center
11:12AM 29.3236 -91.3031 266° West 334 384 36,000  Level Houston Center
11:13AM 29.3333 -91.4086 276° West 332 382 36,000  Level Houston Center
11:14AM 29.3747 -91.5042 296° West 336 387 36,000  Level Houston Center
11:15AM 29.4564 -91.5972 315° West 346 398 36,000  Level Houston Center
11:16AM 29.5428 -91.6528 331° Northwest 354 407 36,000  Level Houston Center
11:17AM 29.6389 -91.6958 339° North 370 426 36,000  Level Houston Center
11:18AM 29.7358 -91.7486 335° Northwest 377 434 36,000  Level Houston Center
11:19AM 29.8300 -91.8011 334° Northwest 377 434 36,000  Level Houston Center
11:20AM 29.9286 -91.8514 336° Northwest 385 443 36,000 -240 Level Houston Center
11:21AM 30.0275 -91.9017 336° Northwest 390 449 35,600 -780 Descending Houston Center
11:22AM 30.1639 -91.9342 348° North 417 480 34,400 -1,140 Descending Houston Center
11:23AM 30.2656 -91.9111 11° North 442 509 33,300 -1,200 Descending Houston Center
11:24AM 30.3933 -91.8203 32° Northeast 450 518 32,000 -1,140 Descending Houston Center
11:26AM 30.4975 -91.7414 33° Northeast 448 516 31,000 -540 Descending Houston Center
11:27AM 30.6014 -91.6628 33° Northeast 448 516 31,000  Level Houston Center
11:28AM 30.7044 -91.5831 34° Northeast 448 516 31,000  Level Houston Center
11:29AM 30.8072 -91.5042 33° Northeast 446 513 31,000  Level Houston Center
11:30AM 30.9322 -91.4081 33° Northeast 451 519 31,000  Level Houston Center
11:31AM 31.0319 -91.3317 33° Northeast 450 518 31,000  Level Houston Center
11:32AM 31.1372 -91.2500 34° Northeast 453 521 31,000 -480 Level Houston Center
11:33AM 31.2439 -91.1672 34° Northeast 459 528 30,100 -900 Descending Houston Center
11:34AM 31.3497 -91.0839 34° Northeast 457 526 29,200 -1,680 Descending Houston Center
11:35AM 31.4731 -90.9867 34° Northeast 448 516 26,700 -2,400 Descending Houston Center
11:36AM 31.5675 -90.9128 34° Northeast 419 482 24,400 -2,280 Descending Houston Center
11:37AM 31.6567 -90.8436 33° Northeast 396 456 22,000 -2,460 Descending Houston Center
11:38AM 31.7442 -90.7731 34° Northeast 385 443 19,400 -2,340 Descending Houston Center
11:39AM 31.8147 -90.6850 47° Northeast 369 425 17,200 -2,220 Descending Houston Center
11:40AM 31.8778 -90.6003 49° Northeast 355 409 14,900 -2,280 Descending Houston Center
11:41AM 31.9267 -90.5214 54° Northeast 336 387 12,900 -2,460 Descending Memphis Center
11:42AM 31.9767 -90.4456 52° Northeast 310 357 10,400 -2,520 Descending Memphis Center
11:43AM 32.0247 -90.3842 47° Northeast 275 316 7,900 -2,460 Descending Memphis Center
11:44AM 32.0644 -90.3108 57° Northeast 243 280 5,500 -2,160 Descending Memphis Center
11:45AM 32.0956 -90.2444 61° Northeast 238 274 3,600 -1,800 Descending Memphis Center
11:46AM 32.1144 -90.1733 73° East 227 261 2,000 -840 Descending Memphis Center
11:47AM 32.1289 -90.1097 75° East 209 241 2,000  Level Memphis Center
11:48AM 32.1414 -90.0481 77° East 195 224 2,000  Level Memphis Center
11:49AM 32.1706 -90.0211 38° Northeast 139 160 2,000  Level Memphis Center